Conakry, Guinea
Current Conditions -  °F | °C
As of 5:00 PM on Thursday 30 Oct 2014 (Local Time) from GGOV Reporting Station
Scattered Clouds Scattered Clouds  
Wind Chill: 88°   Ceiling: Unl
Heat Index: 100°   Visibility: 6mi
Dew Point: 77°   Wind: 3mph
Humidity: 70%   Direction: 80°E
Pressure: 29.85"   Gusts: NA
Location:  9.55°N, 13.67°W
Report Text: GGOV 301700Z 08003KT 010V110 9999 SCT014 31/25 Q1011 NOSIG
Loading
Personal Weather Stations






























Interactive Weather Map
Tropical Storm Tracking
New forecast layout! Learn more

10-Day Weather Forecast

Advertisements
Track Severe Weather on mobile